sensor_id;sensor_type;location;lat;lon;timestamp;P1;durP1;ratioP1;P2;durP2;ratioP2
23280;SDS011;11809;56.390;-3.266;2023-07-29T00:02:13;10.77;;;5.63;;
23280;SDS011;11809;56.390;-3.266;2023-07-29T00:04:40;9.35;;;4.57;;
23280;SDS011;11809;56.390;-3.266;2023-07-29T00:07:07;7.63;;;4.68;;
23280;SDS011;11809;56.390;-3.266;2023-07-29T00:09:35;9.73;;;5.05;;
23280;SDS011;11809;56.390;-3.266;2023-07-29T00:12:02;11.15;;;5.38;;
23280;SDS011;11809;56.390;-3.266;2023-07-29T00:14:30;7.03;;;4.38;;
23280;SDS011;11809;56.390;-3.266;2023-07-29T00:16:58;7.60;;;4.30;;
23280;SDS011;11809;56.390;-3.266;2023-07-29T00:19:26;9.70;;;4.50;;
23280;SDS011;11809;56.390;-3.266;2023-07-29T00:21:55;7.13;;;4.10;;
23280;SDS011;11809;56.390;-3.266;2023-07-29T00:24:22;6.57;;;4.07;;
23280;SDS011;11809;56.390;-3.266;2023-07-29T00:26:50;5.65;;;3.17;;
23280;SDS011;11809;56.390;-3.266;2023-07-29T00:29:17;7.72;;;3.70;;
23280;SDS011;11809;56.390;-3.266;2023-07-29T00:31:44;9.18;;;3.75;;
23280;SDS011;11809;56.390;-3.266;2023-07-29T00:34:12;5.50;;;3.53;;
23280;SDS011;11809;56.390;-3.266;2023-07-29T00:36:44;7.95;;;3.25;;
23280;SDS011;11809;56.390;-3.266;2023-07-29T00:39:11;3.95;;;3.10;;
23280;SDS011;11809;56.390;-3.266;2023-07-29T00:41:39;4.95;;;3.10;;
23280;SDS011;11809;56.390;-3.266;2023-07-29T00:44:07;3.22;;;2.72;;
23280;SDS011;11809;56.390;-3.266;2023-07-29T00:46:34;6.05;;;3.50;;
23280;SDS011;11809;56.390;-3.266;2023-07-29T00:49:05;8.05;;;3.20;;
23280;SDS011;11809;56.390;-3.266;2023-07-29T00:51:32;3.60;;;2.80;;
23280;SDS011;11809;56.390;-3.266;2023-07-29T00:54:00;5.10;;;2.75;;
23280;SDS011;11809;56.390;-3.266;2023-07-29T00:56:27;5.95;;;2.80;;
23280;SDS011;11809;56.390;-3.266;2023-07-29T00:58:54;3.70;;;2.53;;
23280;SDS011;11809;56.390;-3.266;2023-07-29T01:01:25;3.90;;;2.60;;
23280;SDS011;11809;56.390;-3.266;2023-07-29T01:03:52;4.65;;;2.80;;
23280;SDS011;11809;56.390;-3.266;2023-07-29T01:06:40;3.50;;;2.30;;
23280;SDS011;11809;56.390;-3.266;2023-07-29T01:09:20;3.63;;;2.35;;
23280;SDS011;11809;56.390;-3.266;2023-07-29T01:11:58;3.17;;;2.20;;
23280;SDS011;11809;56.390;-3.266;2023-07-29T01:17:46;3.67;;;1.90;;
23280;SDS011;11809;56.390;-3.266;2023-07-29T01:20:16;2.83;;;2.10;;
23280;SDS011;11809;56.390;-3.266;2023-07-29T01:22:47;2.50;;;2.00;;
23280;SDS011;11809;56.390;-3.266;2023-07-29T01:25:15;1.98;;;1.77;;
23280;SDS011;11809;56.390;-3.266;2023-07-29T01:27:43;2.65;;;1.80;;
23280;SDS011;11809;56.390;-3.266;2023-07-29T01:30:12;3.30;;;2.23;;
23280;SDS011;11809;56.390;-3.266;2023-07-29T01:38:18;2.47;;;1.90;;
23280;SDS011;11809;56.390;-3.266;2023-07-29T01:40:48;3.03;;;1.63;;
23280;SDS011;11809;56.390;-3.266;2023-07-29T01:43:17;2.92;;;2.10;;
23280;SDS011;11809;56.390;-3.266;2023-07-29T01:45:50;1.63;;;1.52;;
23280;SDS011;11809;56.390;-3.266;2023-07-29T01:48:18;1.67;;;1.52;;
23280;SDS011;11809;56.390;-3.266;2023-07-29T01:50:45;1.73;;;1.63;;
23280;SDS011;11809;56.390;-3.266;2023-07-29T01:53:12;3.55;;;1.77;;
23280;SDS011;11809;56.390;-3.266;2023-07-29T01:55:40;1.73;;;1.60;;
23280;SDS011;11809;56.390;-3.266;2023-07-29T01:58:08;1.67;;;1.40;;
23280;SDS011;11809;56.390;-3.266;2023-07-29T02:00:35;2.65;;;1.50;;
23280;SDS011;11809;56.390;-3.266;2023-07-29T02:03:03;1.55;;;1.40;;
23280;SDS011;11809;56.390;-3.266;2023-07-29T02:05:30;3.63;;;1.60;;
23280;SDS011;11809;56.390;-3.266;2023-07-29T02:07:57;1.48;;;1.38;;
23280;SDS011;11809;56.390;-3.266;2023-07-29T02:10:24;1.48;;;1.38;;
23280;SDS011;11809;56.390;-3.266;2023-07-29T02:12:51;1.88;;;1.50;;
23280;SDS011;11809;56.390;-3.266;2023-07-29T02:15:18;1.63;;;1.30;;
23280;SDS011;11809;56.390;-3.266;2023-07-29T02:17:45;1.63;;;1.50;;
23280;SDS011;11809;56.390;-3.266;2023-07-29T02:20:12;1.40;;;1.30;;
23280;SDS011;11809;56.390;-3.266;2023-07-29T02:22:39;1.75;;;1.40;;
23280;SDS011;11809;56.390;-3.266;2023-07-29T02:25:07;1.45;;;1.35;;
23280;SDS011;11809;56.390;-3.266;2023-07-29T02:27:34;1.30;;;1.20;;
23280;SDS011;11809;56.390;-3.266;2023-07-29T02:30:01;1.77;;;1.45;;
23280;SDS011;11809;56.390;-3.266;2023-07-29T02:32:29;1.40;;;1.30;;
23280;SDS011;11809;56.390;-3.266;2023-07-29T02:34:56;1.20;;;1.10;;
23280;SDS011;11809;56.390;-3.266;2023-07-29T02:37:23;1.25;;;1.15;;
23280;SDS011;11809;56.390;-3.266;2023-07-29T02:39:50;1.50;;;1.25;;
23280;SDS011;11809;56.390;-3.266;2023-07-29T02:42:17;1.38;;;1.23;;
23280;SDS011;11809;56.390;-3.266;2023-07-29T02:44:44;1.40;;;1.30;;
23280;SDS011;11809;56.390;-3.266;2023-07-29T02:47:12;2.38;;;1.08;;
23280;SDS011;11809;56.390;-3.266;2023-07-29T02:49:39;2.10;;;1.20;;
23280;SDS011;11809;56.390;-3.266;2023-07-29T02:52:06;1.30;;;1.20;;
23280;SDS011;11809;56.390;-3.266;2023-07-29T02:54:33;1.25;;;1.10;;
23280;SDS011;11809;56.390;-3.266;2023-07-29T02:57:00;2.85;;;1.10;;
23280;SDS011;11809;56.390;-3.266;2023-07-29T02:59:27;1.60;;;1.20;;
23280;SDS011;11809;56.390;-3.266;2023-07-29T03:01:54;1.00;;;1.00;;
23280;SDS011;11809;56.390;-3.266;2023-07-29T03:04:21;1.23;;;1.13;;
23280;SDS011;11809;56.390;-3.266;2023-07-29T03:06:50;1.55;;;1.17;;
23280;SDS011;11809;56.390;-3.266;2023-07-29T03:09:17;1.88;;;1.00;;
23280;SDS011;11809;56.390;-3.266;2023-07-29T03:11:44;1.70;;;1.20;;
23280;SDS011;11809;56.390;-3.266;2023-07-29T03:14:11;0.90;;;0.90;;
23280;SDS011;11809;56.390;-3.266;2023-07-29T03:16:38;2.05;;;1.23;;
23280;SDS011;11809;56.390;-3.266;2023-07-29T03:19:05;1.00;;;1.00;;
23280;SDS011;11809;56.390;-3.266;2023-07-29T03:21:32;1.20;;;1.10;;
23280;SDS011;11809;56.390;-3.266;2023-07-29T03:24:00;2.53;;;1.00;;
23280;SDS011;11809;56.390;-3.266;2023-07-29T03:26:27;1.48;;;1.23;;
23280;SDS011;11809;56.390;-3.266;2023-07-29T03:28:54;1.23;;;0.90;;
23280;SDS011;11809;56.390;-3.266;2023-07-29T03:31:21;1.60;;;1.20;;
23280;SDS011;11809;56.390;-3.266;2023-07-29T03:33:48;2.25;;;1.33;;
23280;SDS011;11809;56.390;-3.266;2023-07-29T03:36:15;0.93;;;0.90;;
23280;SDS011;11809;56.390;-3.266;2023-07-29T03:38:43;1.50;;;1.05;;
23280;SDS011;11809;56.390;-3.266;2023-07-29T03:41:11;2.58;;;1.10;;
23280;SDS011;11809;56.390;-3.266;2023-07-29T03:43:38;1.85;;;1.30;;
23280;SDS011;11809;56.390;-3.266;2023-07-29T03:46:05;1.15;;;1.05;;
23280;SDS011;11809;56.390;-3.266;2023-07-29T03:48:37;2.05;;;1.00;;
23280;SDS011;11809;56.390;-3.266;2023-07-29T03:51:04;1.20;;;0.98;;
23280;SDS011;11809;56.390;-3.266;2023-07-29T03:53:31;1.38;;;1.02;;
23280;SDS011;11809;56.390;-3.266;2023-07-29T03:55:58;1.38;;;1.10;;
23280;SDS011;11809;56.390;-3.266;2023-07-29T03:58:26;1.05;;;0.98;;
23280;SDS011;11809;56.390;-3.266;2023-07-29T04:00:53;2.95;;;1.00;;
23280;SDS011;11809;56.390;-3.266;2023-07-29T04:03:20;0.98;;;0.90;;
23280;SDS011;11809;56.390;-3.266;2023-07-29T04:05:47;2.13;;;0.98;;
23280;SDS011;11809;56.390;-3.266;2023-07-29T04:08:14;2.28;;;1.17;;
23280;SDS011;11809;56.390;-3.266;2023-07-29T04:10:41;3.25;;;0.95;;
23280;SDS011;11809;56.390;-3.266;2023-07-29T04:13:08;1.48;;;0.90;;
23280;SDS011;11809;56.390;-3.266;2023-07-29T04:15:35;1.45;;;1.10;;
23280;SDS011;11809;56.390;-3.266;2023-07-29T04:18:02;1.15;;;1.00;;
23280;SDS011;11809;56.390;-3.266;2023-07-29T04:20:29;1.27;;;1.00;;
23280;SDS011;11809;56.390;-3.266;2023-07-29T04:22:56;1.10;;;0.90;;
23280;SDS011;11809;56.390;-3.266;2023-07-29T04:25:23;1.80;;;1.20;;
23280;SDS011;11809;56.390;-3.266;2023-07-29T04:27:50;1.90;;;0.90;;
23280;SDS011;11809;56.390;-3.266;2023-07-29T04:30:17;1.00;;;0.90;;
23280;SDS011;11809;56.390;-3.266;2023-07-29T04:32:44;1.10;;;0.90;;
23280;SDS011;11809;56.390;-3.266;2023-07-29T04:35:15;1.42;;;0.90;;
23280;SDS011;11809;56.390;-3.266;2023-07-29T04:37:42;0.90;;;0.90;;
23280;SDS011;11809;56.390;-3.266;2023-07-29T04:40:09;1.77;;;0.90;;
23280;SDS011;11809;56.390;-3.266;2023-07-29T04:42:37;1.73;;;0.90;;
23280;SDS011;11809;56.390;-3.266;2023-07-29T04:45:04;1.15;;;1.02;;
23280;SDS011;11809;56.390;-3.266;2023-07-29T04:47:32;2.33;;;0.90;;
23280;SDS011;11809;56.390;-3.266;2023-07-29T04:49:59;3.22;;;1.02;;
23280;SDS011;11809;56.390;-3.266;2023-07-29T04:52:26;0.90;;;0.90;;
23280;SDS011;11809;56.390;-3.266;2023-07-29T04:54:53;1.90;;;1.00;;
23280;SDS011;11809;56.390;-3.266;2023-07-29T04:57:20;1.17;;;1.05;;
23280;SDS011;11809;56.390;-3.266;2023-07-29T04:59:47;2.08;;;0.90;;
23280;SDS011;11809;56.390;-3.266;2023-07-29T05:02:14;2.38;;;1.33;;
23280;SDS011;11809;56.390;-3.266;2023-07-29T05:04:41;4.10;;;1.00;;
23280;SDS011;11809;56.390;-3.266;2023-07-29T05:07:09;2.03;;;0.90;;
23280;SDS011;11809;56.390;-3.266;2023-07-29T05:09:36;5.03;;;0.93;;
23280;SDS011;11809;56.390;-3.266;2023-07-29T05:12:03;3.72;;;0.90;;
23280;SDS011;11809;56.390;-3.266;2023-07-29T05:14:30;1.00;;;0.90;;
23280;SDS011;11809;56.390;-3.266;2023-07-29T05:16:57;2.25;;;1.00;;
23280;SDS011;11809;56.390;-3.266;2023-07-29T05:19:24;2.55;;;1.00;;
23280;SDS011;11809;56.390;-3.266;2023-07-29T05:21:51;3.80;;;1.00;;
23280;SDS011;11809;56.390;-3.266;2023-07-29T05:24:18;3.40;;;1.13;;
23280;SDS011;11809;56.390;-3.266;2023-07-29T05:26:45;4.82;;;1.15;;
23280;SDS011;11809;56.390;-3.266;2023-07-29T05:29:12;2.38;;;1.00;;
23280;SDS011;11809;56.390;-3.266;2023-07-29T05:31:39;5.05;;;1.10;;
23280;SDS011;11809;56.390;-3.266;2023-07-29T05:34:07;3.53;;;1.02;;
23280;SDS011;11809;56.390;-3.266;2023-07-29T05:36:34;5.60;;;0.80;;
23280;SDS011;11809;56.390;-3.266;2023-07-29T05:39:01;2.20;;;1.10;;
23280;SDS011;11809;56.390;-3.266;2023-07-29T05:41:28;2.25;;;0.93;;
23280;SDS011;11809;56.390;-3.266;2023-07-29T05:43:55;2.88;;;1.00;;
23280;SDS011;11809;56.390;-3.266;2023-07-29T05:46:22;1.92;;;0.82;;
23280;SDS011;11809;56.390;-3.266;2023-07-29T05:48:50;2.10;;;1.10;;
23280;SDS011;11809;56.390;-3.266;2023-07-29T05:51:17;3.45;;;1.15;;
23280;SDS011;11809;56.390;-3.266;2023-07-29T05:53:44;1.38;;;0.98;;
23280;SDS011;11809;56.390;-3.266;2023-07-29T05:56:11;2.67;;;0.98;;
23280;SDS011;11809;56.390;-3.266;2023-07-29T05:58:38;2.00;;;1.10;;
23280;SDS011;11809;56.390;-3.266;2023-07-29T06:01:05;1.73;;;1.15;;
23280;SDS011;11809;56.390;-3.266;2023-07-29T06:03:32;5.00;;;0.90;;
23280;SDS011;11809;56.390;-3.266;2023-07-29T06:05:59;3.30;;;1.00;;
23280;SDS011;11809;56.390;-3.266;2023-07-29T06:08:26;1.13;;;0.75;;
23280;SDS011;11809;56.390;-3.266;2023-07-29T06:10:55;2.05;;;0.82;;
23280;SDS011;11809;56.390;-3.266;2023-07-29T06:13:22;1.33;;;0.90;;
23280;SDS011;11809;56.390;-3.266;2023-07-29T06:15:49;2.05;;;0.98;;
23280;SDS011;11809;56.390;-3.266;2023-07-29T06:18:17;0.80;;;0.80;;
23280;SDS011;11809;56.390;-3.266;2023-07-29T06:20:44;1.13;;;0.80;;
23280;SDS011;11809;56.390;-3.266;2023-07-29T06:23:11;3.33;;;0.80;;
23280;SDS011;11809;56.390;-3.266;2023-07-29T06:25:38;3.13;;;1.00;;
23280;SDS011;11809;56.390;-3.266;2023-07-29T06:28:05;4.93;;;0.95;;
23280;SDS011;11809;56.390;-3.266;2023-07-29T06:30:32;2.58;;;0.85;;
23280;SDS011;11809;56.390;-3.266;2023-07-29T06:32:59;1.45;;;0.73;;
23280;SDS011;11809;56.390;-3.266;2023-07-29T06:35:27;1.08;;;0.75;;
23280;SDS011;11809;56.390;-3.266;2023-07-29T06:37:54;14.23;;;1.38;;
23280;SDS011;11809;56.390;-3.266;2023-07-29T06:40:21;13.52;;;2.05;;
23280;SDS011;11809;56.390;-3.266;2023-07-29T06:42:48;5.18;;;1.50;;
23280;SDS011;11809;56.390;-3.266;2023-07-29T06:45:15;14.10;;;2.00;;
23280;SDS011;11809;56.390;-3.266;2023-07-29T06:47:42;9.93;;;1.40;;
23280;SDS011;11809;56.390;-3.266;2023-07-29T06:50:09;11.57;;;1.35;;
23280;SDS011;11809;56.390;-3.266;2023-07-29T06:52:37;8.73;;;1.70;;
23280;SDS011;11809;56.390;-3.266;2023-07-29T06:55:05;5.95;;;1.52;;
23280;SDS011;11809;56.390;-3.266;2023-07-29T06:57:32;10.60;;;1.40;;
23280;SDS011;11809;56.390;-3.266;2023-07-29T06:59:59;8.80;;;1.50;;
23280;SDS011;11809;56.390;-3.266;2023-07-29T07:02:26;3.88;;;1.33;;
23280;SDS011;11809;56.390;-3.266;2023-07-29T07:04:53;4.88;;;1.30;;
23280;SDS011;11809;56.390;-3.266;2023-07-29T07:07:20;9.73;;;1.60;;
23280;SDS011;11809;56.390;-3.266;2023-07-29T07:09:47;12.30;;;1.20;;
23280;SDS011;11809;56.390;-3.266;2023-07-29T07:12:14;10.63;;;1.90;;
23280;SDS011;11809;56.390;-3.266;2023-07-29T07:14:41;19.48;;;1.73;;
23280;SDS011;11809;56.390;-3.266;2023-07-29T07:17:09;8.80;;;1.60;;
23280;SDS011;11809;56.390;-3.266;2023-07-29T07:19:39;9.05;;;1.42;;
23280;SDS011;11809;56.390;-3.266;2023-07-29T07:22:06;10.80;;;1.33;;
23280;SDS011;11809;56.390;-3.266;2023-07-29T07:24:33;8.27;;;1.50;;
23280;SDS011;11809;56.390;-3.266;2023-07-29T07:27:00;21.00;;;1.77;;
23280;SDS011;11809;56.390;-3.266;2023-07-29T07:29:28;10.80;;;1.58;;
23280;SDS011;11809;56.390;-3.266;2023-07-29T07:31:56;19.38;;;1.95;;
23280;SDS011;11809;56.390;-3.266;2023-07-29T07:34:24;15.25;;;2.38;;
23280;SDS011;11809;56.390;-3.266;2023-07-29T07:36:51;5.38;;;1.23;;
23280;SDS011;11809;56.390;-3.266;2023-07-29T07:39:18;11.00;;;1.50;;
23280;SDS011;11809;56.390;-3.266;2023-07-29T07:41:45;27.27;;;12.77;;
23280;SDS011;11809;56.390;-3.266;2023-07-29T07:44:13;26.15;;;8.00;;
23280;SDS011;11809;56.390;-3.266;2023-07-29T07:46:42;23.65;;;8.23;;
23280;SDS011;11809;56.390;-3.266;2023-07-29T07:49:09;16.15;;;6.07;;
23280;SDS011;11809;56.390;-3.266;2023-07-29T07:51:36;15.40;;;3.28;;
23280;SDS011;11809;56.390;-3.266;2023-07-29T07:54:03;11.07;;;4.05;;
23280;SDS011;11809;56.390;-3.266;2023-07-29T07:56:30;12.35;;;4.10;;
23280;SDS011;11809;56.390;-3.266;2023-07-29T07:58:58;10.48;;;4.38;;
23280;SDS011;11809;56.390;-3.266;2023-07-29T08:01:25;10.15;;;4.70;;
23280;SDS011;11809;56.390;-3.266;2023-07-29T08:03:52;17.33;;;6.00;;
23280;SDS011;11809;56.390;-3.266;2023-07-29T08:06:19;14.45;;;5.43;;
23280;SDS011;11809;56.390;-3.266;2023-07-29T08:08:46;13.32;;;4.50;;
23280;SDS011;11809;56.390;-3.266;2023-07-29T08:11:13;14.10;;;4.10;;
23280;SDS011;11809;56.390;-3.266;2023-07-29T08:13:40;10.50;;;4.35;;
23280;SDS011;11809;56.390;-3.266;2023-07-29T08:16:07;8.45;;;3.75;;
23280;SDS011;11809;56.390;-3.266;2023-07-29T08:18:34;7.35;;;4.25;;
23280;SDS011;11809;56.390;-3.266;2023-07-29T08:21:02;6.75;;;3.75;;
23280;SDS011;11809;56.390;-3.266;2023-07-29T08:23:33;9.13;;;4.50;;
23280;SDS011;11809;56.390;-3.266;2023-07-29T08:26:02;6.50;;;4.10;;
23280;SDS011;11809;56.390;-3.266;2023-07-29T08:28:35;6.57;;;3.65;;
23280;SDS011;11809;56.390;-3.266;2023-07-29T08:33:32;8.43;;;3.55;;
23280;SDS011;11809;56.390;-3.266;2023-07-29T08:36:02;10.20;;;3.55;;
23280;SDS011;11809;56.390;-3.266;2023-07-29T08:38:30;16.25;;;3.20;;
23280;SDS011;11809;56.390;-3.266;2023-07-29T08:46:39;10.07;;;2.45;;
23280;SDS011;11809;56.390;-3.266;2023-07-29T08:49:07;10.88;;;2.40;;
23280;SDS011;11809;56.390;-3.266;2023-07-29T08:51:35;6.70;;;1.85;;
23280;SDS011;11809;56.390;-3.266;2023-07-29T08:54:04;8.88;;;2.45;;
23280;SDS011;11809;56.390;-3.266;2023-07-29T08:56:31;5.93;;;1.88;;
23280;SDS011;11809;56.390;-3.266;2023-07-29T08:58:58;19.90;;;2.45;;
23280;SDS011;11809;56.390;-3.266;2023-07-29T09:01:28;18.80;;;2.22;;
23280;SDS011;11809;56.390;-3.266;2023-07-29T09:03:57;11.32;;;2.00;;
23280;SDS011;11809;56.390;-3.266;2023-07-29T09:06:24;6.28;;;1.88;;
23280;SDS011;11809;56.390;-3.266;2023-07-29T09:08:55;14.98;;;2.28;;
23280;SDS011;11809;56.390;-3.266;2023-07-29T09:11:25;9.50;;;1.70;;
23280;SDS011;11809;56.390;-3.266;2023-07-29T09:13:53;7.93;;;1.83;;
23280;SDS011;11809;56.390;-3.266;2023-07-29T09:16:20;27.08;;;2.10;;
23280;SDS011;11809;56.390;-3.266;2023-07-29T09:18:48;8.75;;;2.03;;
23280;SDS011;11809;56.390;-3.266;2023-07-29T09:21:25;7.22;;;1.50;;
23280;SDS011;11809;56.390;-3.266;2023-07-29T09:23:53;8.98;;;1.67;;
23280;SDS011;11809;56.390;-3.266;2023-07-29T09:26:22;6.90;;;1.90;;
23280;SDS011;11809;56.390;-3.266;2023-07-29T09:28:54;10.60;;;1.70;;
23280;SDS011;11809;56.390;-3.266;2023-07-29T09:31:26;12.07;;;1.70;;
23280;SDS011;11809;56.390;-3.266;2023-07-29T09:33:57;21.38;;;2.47;;
23280;SDS011;11809;56.390;-3.266;2023-07-29T09:36:26;16.20;;;2.22;;
23280;SDS011;11809;56.390;-3.266;2023-07-29T09:38:57;16.92;;;2.42;;
23280;SDS011;11809;56.390;-3.266;2023-07-29T09:44:01;13.88;;;2.05;;
23280;SDS011;11809;56.390;-3.266;2023-07-29T09:46:36;11.88;;;2.00;;
23280;SDS011;11809;56.390;-3.266;2023-07-29T09:49:06;13.98;;;1.75;;
23280;SDS011;11809;56.390;-3.266;2023-07-29T09:51:39;11.32;;;1.95;;
23280;SDS011;11809;56.390;-3.266;2023-07-29T09:54:07;11.65;;;2.08;;
23280;SDS011;11809;56.390;-3.266;2023-07-29T09:56:39;20.00;;;1.70;;
23280;SDS011;11809;56.390;-3.266;2023-07-29T09:59:10;10.20;;;2.08;;
23280;SDS011;11809;56.390;-3.266;2023-07-29T10:01:39;9.35;;;1.80;;
23280;SDS011;11809;56.390;-3.266;2023-07-29T10:04:07;15.73;;;2.03;;
23280;SDS011;11809;56.390;-3.266;2023-07-29T10:06:38;9.50;;;1.77;;
23280;SDS011;11809;56.390;-3.266;2023-07-29T10:09:06;9.13;;;1.83;;
23280;SDS011;11809;56.390;-3.266;2023-07-29T10:11:34;9.07;;;1.63;;
23280;SDS011;11809;56.390;-3.266;2023-07-29T10:14:02;20.45;;;1.73;;
23280;SDS011;11809;56.390;-3.266;2023-07-29T10:16:36;9.65;;;1.65;;
23280;SDS011;11809;56.390;-3.266;2023-07-29T10:19:05;6.07;;;1.50;;
23280;SDS011;11809;56.390;-3.266;2023-07-29T10:21:35;6.70;;;1.52;;
23280;SDS011;11809;56.390;-3.266;2023-07-29T10:24:06;6.90;;;1.70;;
23280;SDS011;11809;56.390;-3.266;2023-07-29T10:26:42;11.30;;;1.73;;
23280;SDS011;11809;56.390;-3.266;2023-07-29T10:29:13;11.40;;;1.80;;
23280;SDS011;11809;56.390;-3.266;2023-07-29T10:31:45;12.57;;;2.30;;
23280;SDS011;11809;56.390;-3.266;2023-07-29T10:34:13;24.23;;;2.28;;
23280;SDS011;11809;56.390;-3.266;2023-07-29T10:36:41;12.13;;;1.90;;
23280;SDS011;11809;56.390;-3.266;2023-07-29T10:39:09;20.98;;;2.75;;
23280;SDS011;11809;56.390;-3.266;2023-07-29T10:47:13;32.35;;;2.25;;
23280;SDS011;11809;56.390;-3.266;2023-07-29T10:49:44;47.72;;;3.63;;
23280;SDS011;11809;56.390;-3.266;2023-07-29T10:52:16;54.20;;;4.38;;
23280;SDS011;11809;56.390;-3.266;2023-07-29T10:54:55;52.72;;;5.53;;
23280;SDS011;11809;56.390;-3.266;2023-07-29T10:57:34;37.78;;;6.05;;
23280;SDS011;11809;56.390;-3.266;2023-07-29T11:00:04;49.45;;;5.10;;
23280;SDS011;11809;56.390;-3.266;2023-07-29T11:02:32;37.22;;;5.47;;
23280;SDS011;11809;56.390;-3.266;2023-07-29T11:05:07;35.38;;;5.88;;
23280;SDS011;11809;56.390;-3.266;2023-07-29T11:07:46;34.08;;;5.15;;
23280;SDS011;11809;56.390;-3.266;2023-07-29T11:10:15;25.13;;;4.25;;
23280;SDS011;11809;56.390;-3.266;2023-07-29T11:17:38;19.70;;;3.85;;
23280;SDS011;11809;56.390;-3.266;2023-07-29T11:20:23;19.33;;;2.90;;
23280;SDS011;11809;56.390;-3.266;2023-07-29T11:22:54;17.80;;;2.85;;
23280;SDS011;11809;56.390;-3.266;2023-07-29T11:25:23;13.10;;;2.38;;
23280;SDS011;11809;56.390;-3.266;2023-07-29T11:27:52;9.98;;;2.50;;
23280;SDS011;11809;56.390;-3.266;2023-07-29T11:30:20;12.63;;;2.20;;
23280;SDS011;11809;56.390;-3.266;2023-07-29T11:32:49;10.73;;;2.38;;
23280;SDS011;11809;56.390;-3.266;2023-07-29T11:35:17;14.57;;;2.80;;
23280;SDS011;11809;56.390;-3.266;2023-07-29T11:37:46;7.40;;;1.73;;
23280;SDS011;11809;56.390;-3.266;2023-07-29T11:40:22;7.00;;;1.85;;
23280;SDS011;11809;56.390;-3.266;2023-07-29T11:42:51;8.27;;;1.50;;
23280;SDS011;11809;56.390;-3.266;2023-07-29T11:45:19;14.48;;;1.92;;
23280;SDS011;11809;56.390;-3.266;2023-07-29T11:47:50;6.00;;;1.40;;
23280;SDS011;11809;56.390;-3.266;2023-07-29T11:50:18;4.03;;;1.30;;
23280;SDS011;11809;56.390;-3.266;2023-07-29T11:52:45;5.40;;;1.48;;
23280;SDS011;11809;56.390;-3.266;2023-07-29T11:55:13;10.20;;;1.40;;
23280;SDS011;11809;56.390;-3.266;2023-07-29T11:57:42;7.03;;;1.48;;
23280;SDS011;11809;56.390;-3.266;2023-07-29T12:00:10;3.42;;;1.10;;
23280;SDS011;11809;56.390;-3.266;2023-07-29T12:02:40;6.88;;;1.50;;
23280;SDS011;11809;56.390;-3.266;2023-07-29T12:05:12;4.30;;;1.30;;
23280;SDS011;11809;56.390;-3.266;2023-07-29T12:07:42;3.88;;;1.05;;
23280;SDS011;11809;56.390;-3.266;2023-07-29T12:10:11;5.55;;;1.20;;
23280;SDS011;11809;56.390;-3.266;2023-07-29T12:12:45;4.03;;;1.13;;
23280;SDS011;11809;56.390;-3.266;2023-07-29T12:15:13;4.65;;;1.45;;
23280;SDS011;11809;56.390;-3.266;2023-07-29T12:17:40;4.78;;;1.48;;
23280;SDS011;11809;56.390;-3.266;2023-07-29T12:20:09;3.55;;;1.20;;
23280;SDS011;11809;56.390;-3.266;2023-07-29T12:22:37;3.53;;;1.15;;
23280;SDS011;11809;56.390;-3.266;2023-07-29T12:25:04;3.30;;;1.20;;
23280;SDS011;11809;56.390;-3.266;2023-07-29T12:27:33;2.50;;;1.17;;
23280;SDS011;11809;56.390;-3.266;2023-07-29T12:30:01;2.33;;;1.23;;
23280;SDS011;11809;56.390;-3.266;2023-07-29T12:32:30;2.92;;;1.40;;
23280;SDS011;11809;56.390;-3.266;2023-07-29T12:34:57;2.90;;;0.95;;
23280;SDS011;11809;56.390;-3.266;2023-07-29T12:37:31;2.33;;;1.15;;
23280;SDS011;11809;56.390;-3.266;2023-07-29T12:39:59;5.93;;;1.15;;
23280;SDS011;11809;56.390;-3.266;2023-07-29T12:42:26;3.53;;;1.05;;
23280;SDS011;11809;56.390;-3.266;2023-07-29T12:44:54;4.68;;;1.27;;
23280;SDS011;11809;56.390;-3.266;2023-07-29T12:47:21;2.00;;;1.05;;
23280;SDS011;11809;56.390;-3.266;2023-07-29T12:49:48;5.00;;;1.00;;
23280;SDS011;11809;56.390;-3.266;2023-07-29T12:52:15;3.10;;;0.93;;
23280;SDS011;11809;56.390;-3.266;2023-07-29T12:54:42;2.63;;;1.27;;
23280;SDS011;11809;56.390;-3.266;2023-07-29T12:57:11;3.58;;;0.90;;
23280;SDS011;11809;56.390;-3.266;2023-07-29T12:59:38;10.48;;;1.25;;
23280;SDS011;11809;56.390;-3.266;2023-07-29T13:02:05;6.00;;;1.10;;
23280;SDS011;11809;56.390;-3.266;2023-07-29T13:04:33;2.33;;;1.02;;
23280;SDS011;11809;56.390;-3.266;2023-07-29T13:07:00;2.70;;;1.00;;
23280;SDS011;11809;56.390;-3.266;2023-07-29T13:09:27;5.13;;;0.85;;
23280;SDS011;11809;56.390;-3.266;2023-07-29T13:11:54;2.83;;;0.93;;
23280;SDS011;11809;56.390;-3.266;2023-07-29T13:14:22;2.67;;;1.00;;
23280;SDS011;11809;56.390;-3.266;2023-07-29T13:16:49;2.05;;;0.88;;
23280;SDS011;11809;56.390;-3.266;2023-07-29T13:19:16;2.60;;;0.90;;
23280;SDS011;11809;56.390;-3.266;2023-07-29T13:21:43;2.95;;;1.00;;
23280;SDS011;11809;56.390;-3.266;2023-07-29T13:24:10;5.97;;;1.30;;
23280;SDS011;11809;56.390;-3.266;2023-07-29T13:26:37;4.50;;;1.15;;
23280;SDS011;11809;56.390;-3.266;2023-07-29T13:29:05;5.13;;;1.00;;
23280;SDS011;11809;56.390;-3.266;2023-07-29T13:31:35;3.60;;;1.10;;
23280;SDS011;11809;56.390;-3.266;2023-07-29T13:34:02;7.85;;;0.80;;
23280;SDS011;11809;56.390;-3.266;2023-07-29T13:36:29;4.85;;;1.00;;
23280;SDS011;11809;56.390;-3.266;2023-07-29T13:38:56;4.28;;;0.80;;
23280;SDS011;11809;56.390;-3.266;2023-07-29T13:41:23;2.42;;;1.13;;
23280;SDS011;11809;56.390;-3.266;2023-07-29T13:43:50;1.83;;;0.80;;
23280;SDS011;11809;56.390;-3.266;2023-07-29T13:46:17;2.05;;;1.00;;
23280;SDS011;11809;56.390;-3.266;2023-07-29T13:48:48;3.58;;;0.98;;
23280;SDS011;11809;56.390;-3.266;2023-07-29T13:51:15;2.70;;;0.90;;
23280;SDS011;11809;56.390;-3.266;2023-07-29T13:53:42;8.10;;;1.50;;
23280;SDS011;11809;56.390;-3.266;2023-07-29T13:56:10;5.18;;;1.13;;
23280;SDS011;11809;56.390;-3.266;2023-07-29T13:58:37;4.88;;;1.10;;
23280;SDS011;11809;56.390;-3.266;2023-07-29T14:01:04;5.93;;;1.35;;
23280;SDS011;11809;56.390;-3.266;2023-07-29T14:03:32;2.75;;;1.08;;
23280;SDS011;11809;56.390;-3.266;2023-07-29T14:05:59;6.15;;;1.40;;
23280;SDS011;11809;56.390;-3.266;2023-07-29T14:08:26;6.00;;;1.10;;
23280;SDS011;11809;56.390;-3.266;2023-07-29T14:10:54;2.35;;;1.13;;
23280;SDS011;11809;56.390;-3.266;2023-07-29T14:13:21;2.97;;;1.20;;
23280;SDS011;11809;56.390;-3.266;2023-07-29T14:15:48;4.45;;;1.30;;
23280;SDS011;11809;56.390;-3.266;2023-07-29T14:18:16;3.17;;;1.23;;
23280;SDS011;11809;56.390;-3.266;2023-07-29T14:20:56;6.00;;;1.25;;
23280;SDS011;11809;56.390;-3.266;2023-07-29T14:23:24;4.43;;;1.50;;
23280;SDS011;11809;56.390;-3.266;2023-07-29T14:25:51;3.22;;;1.33;;
23280;SDS011;11809;56.390;-3.266;2023-07-29T14:28:18;3.25;;;1.13;;
23280;SDS011;11809;56.390;-3.266;2023-07-29T14:30:46;4.90;;;1.20;;
23280;SDS011;11809;56.390;-3.266;2023-07-29T14:33:14;3.13;;;1.05;;
23280;SDS011;11809;56.390;-3.266;2023-07-29T14:35:41;4.70;;;1.10;;
23280;SDS011;11809;56.390;-3.266;2023-07-29T14:38:09;2.85;;;1.05;;
23280;SDS011;11809;56.390;-3.266;2023-07-29T14:40:36;4.00;;;1.38;;
23280;SDS011;11809;56.390;-3.266;2023-07-29T14:43:04;2.70;;;1.33;;
23280;SDS011;11809;56.390;-3.266;2023-07-29T14:45:31;3.70;;;1.00;;
23280;SDS011;11809;56.390;-3.266;2023-07-29T14:47:59;2.85;;;1.10;;
23280;SDS011;11809;56.390;-3.266;2023-07-29T14:50:32;2.67;;;1.17;;
23280;SDS011;11809;56.390;-3.266;2023-07-29T14:52:59;2.58;;;0.93;;
23280;SDS011;11809;56.390;-3.266;2023-07-29T14:55:26;2.95;;;1.38;;
23280;SDS011;11809;56.390;-3.266;2023-07-29T14:57:54;2.38;;;1.00;;
23280;SDS011;11809;56.390;-3.266;2023-07-29T15:00:22;2.78;;;1.00;;
23280;SDS011;11809;56.390;-3.266;2023-07-29T15:02:49;7.18;;;1.10;;
23280;SDS011;11809;56.390;-3.266;2023-07-29T15:05:20;3.88;;;1.20;;
23280;SDS011;11809;56.390;-3.266;2023-07-29T15:07:48;7.03;;;1.23;;